createdAt,value
2019-05-03T00:02:05.800Z,17.63
2019-05-03T00:07:07.293Z,18.20
2019-05-03T00:12:08.382Z,18.17
2019-05-03T00:17:11.609Z,18.23
2019-05-03T00:22:12.665Z,17.23
2019-05-03T00:27:13.859Z,17.37
2019-05-03T00:32:15.055Z,17.00
2019-05-03T00:37:22.085Z,16.23
2019-05-03T00:42:23.908Z,15.67
2019-05-03T00:47:25.023Z,15.37
2019-05-03T00:52:26.130Z,15.23
2019-05-03T00:57:28.844Z,15.60
2019-05-03T01:02:31.662Z,15.00
2019-05-03T01:07:32.938Z,16.17
2019-05-03T01:12:34.015Z,15.60
2019-05-03T01:17:35.612Z,16.47
2019-05-03T01:22:36.707Z,15.97
2019-05-03T01:27:37.798Z,16.37
2019-05-03T01:32:38.891Z,17.30
2019-05-03T01:37:39.984Z,16.97
2019-05-03T01:42:42.581Z,17.03
2019-05-03T01:47:52.599Z,16.00
2019-05-03T01:52:55.778Z,17.17
2019-05-03T01:57:56.870Z,16.37
2019-05-03T02:03:01.557Z,16.27
2019-05-03T02:08:03.072Z,16.23
2019-05-03T02:13:04.493Z,15.67
2019-05-03T02:18:05.775Z,15.23
2019-05-03T02:23:06.887Z,15.77
2019-05-03T02:28:07.967Z,15.40
2019-05-03T02:33:09.059Z,15.97
2019-05-03T02:38:12.810Z,15.17
2019-05-03T02:43:25.971Z,16.13
2019-05-03T02:48:45.962Z,16.20
2019-05-03T02:53:47.172Z,15.70
2019-05-03T02:58:48.366Z,14.97
2019-05-03T03:03:49.529Z,15.63
2019-05-03T03:08:51.815Z,15.60
2019-05-03T03:13:55.620Z,14.70
2019-05-03T03:19:00.524Z,15.97
2019-05-03T03:24:11.180Z,16.43
2019-05-03T03:29:16.167Z,14.63
2019-05-03T03:34:21.131Z,14.77
2019-05-03T03:39:22.388Z,14.13
2019-05-03T03:44:25.626Z,15.40
2019-05-03T03:49:28.276Z,15.67
2019-05-03T03:54:32.110Z,16.10
2019-05-03T03:59:36.378Z,25.70
2019-05-03T04:04:37.284Z,16.47
2019-05-03T04:09:38.977Z,14.77
2019-05-03T04:14:51.223Z,15.30
2019-05-03T04:19:55.916Z,14.20
2019-05-03T04:24:57.507Z,16.23
2019-05-03T04:29:59.111Z,16.30
2019-05-03T04:35:00.208Z,16.13
2019-05-03T04:40:01.507Z,15.70
2019-05-03T04:45:05.856Z,17.50
2019-05-03T04:50:07.429Z,17.30
2019-05-03T04:55:08.712Z,18.20
2019-05-03T05:00:11.576Z,18.27
2019-05-03T05:05:15.359Z,17.57
2019-05-03T05:10:16.117Z,18.73
2019-05-03T05:15:19.411Z,19.77
2019-05-03T05:20:39.086Z,21.17
2019-05-03T05:25:42.109Z,24.10
2019-05-03T05:30:44.431Z,23.63
2019-05-03T05:35:45.711Z,23.43
2019-05-03T05:40:46.923Z,22.70
2019-05-03T05:45:48.124Z,22.10
2019-05-03T05:50:49.235Z,23.83
2019-05-03T05:56:08.807Z,24.13
2019-05-03T06:01:17.835Z,24.77
2019-05-03T06:06:24.641Z,25.30
2019-05-03T06:11:27.652Z,23.83
2019-05-03T06:16:45.053Z,31.77
2019-05-03T06:21:48.003Z,24.93
2019-05-03T06:26:51.059Z,24.93
2019-05-03T06:32:09.374Z,23.03
2019-05-03T06:37:15.097Z,23.93
2019-05-03T06:42:19.249Z,25.67
2019-05-03T06:47:19.726Z,21.10
2019-05-03T06:52:27.574Z,21.13
2019-05-03T06:57:25.362Z,20.17
2019-05-03T07:02:31.522Z,17.73
2019-05-03T07:07:46.559Z,19.33
2019-05-03T07:13:08.774Z,18.83
2019-05-03T07:18:08.733Z,18.37
2019-05-03T07:23:09.975Z,19.13
2019-05-03T07:28:11.096Z,18.47
2019-05-03T07:33:15.079Z,18.70
2019-05-03T07:38:16.313Z,15.87
2019-05-03T07:43:18.888Z,14.53
2019-05-03T07:48:20.308Z,11.73
2019-05-03T07:53:21.426Z,11.60
2019-05-03T07:58:29.979Z,9.63
2019-05-03T08:03:31.065Z,9.47
2019-05-03T08:08:32.165Z,8.83
2019-05-03T08:13:35.373Z,9.30
2019-05-03T08:18:36.264Z,10.47
2019-05-03T08:23:37.450Z,10.20
2019-05-03T08:28:38.541Z,10.97
2019-05-03T08:33:44.828Z,9.80
2019-05-03T08:38:46.091Z,9.97
2019-05-03T08:43:47.192Z,10.40
2019-05-03T08:48:48.284Z,8.77
2019-05-03T08:53:49.394Z,8.47
2019-05-03T08:58:52.672Z,7.50
2019-05-03T09:03:55.617Z,8.23
2019-05-03T09:08:57.348Z,8.70
2019-05-03T09:14:04.576Z,8.73
2019-05-03T09:19:05.950Z,7.60
2019-05-03T09:24:07.089Z,9.43
2019-05-03T09:29:08.200Z,8.23
2019-05-03T09:34:09.296Z,8.10
2019-05-03T09:39:10.393Z,7.97
2019-05-03T09:44:11.488Z,8.63
2019-05-03T09:49:14.483Z,8.17
2019-05-03T09:54:20.312Z,7.63
2019-05-03T09:59:21.414Z,7.40
2019-05-03T10:04:22.861Z,7.40
2019-05-03T10:09:26.098Z,7.10
2019-05-03T10:14:27.229Z,7.47
2019-05-03T10:19:37.607Z,7.47
2019-05-03T10:24:31.531Z,7.33
2019-05-03T10:29:32.860Z,7.17
2019-05-03T10:34:35.693Z,8.03
2019-05-03T10:39:36.953Z,8.00
2019-05-03T10:44:38.098Z,7.57
2019-05-03T10:49:39.252Z,8.07
2019-05-03T10:54:40.375Z,7.20
2019-05-03T10:59:41.583Z,8.00
2019-05-03T11:04:45.654Z,8.57
2019-05-03T11:09:49.606Z,7.67
2019-05-03T11:14:48.883Z,8.90
2019-05-03T11:19:50.001Z,11.33
2019-05-03T11:24:51.258Z,8.00
2019-05-03T11:29:52.459Z,7.93
2019-05-03T11:34:55.525Z,7.80
2019-05-03T11:39:56.685Z,7.50
2019-05-03T11:44:57.897Z,7.77
2019-05-03T11:49:58.985Z,6.60
2019-05-03T11:55:00.131Z,7.13
2019-05-03T12:00:01.423Z,6.80
2019-05-03T12:05:06.530Z,5.97
2019-05-03T12:10:17.226Z,5.87
2019-05-03T12:15:11.911Z,6.30
2019-05-03T12:20:16.740Z,6.07
2019-05-03T12:25:17.242Z,6.10
2019-05-03T12:30:18.943Z,5.20
2019-05-03T12:35:20.058Z,5.03
2019-05-03T12:40:21.159Z,4.83
2019-05-03T12:45:24.590Z,5.10
2019-05-03T12:50:25.480Z,5.40
2019-05-03T12:55:26.586Z,5.13
2019-05-03T13:00:32.633Z,5.70
2019-05-03T13:05:35.521Z,6.33
2019-05-03T13:10:36.768Z,5.27
2019-05-03T13:15:37.891Z,5.70
2019-05-03T13:20:39.091Z,7.47
2019-05-03T13:25:40.208Z,6.60
2019-05-03T13:30:41.339Z,6.77
2019-05-03T13:35:44.445Z,6.30
2019-05-03T13:40:45.476Z,5.97
2019-05-03T13:45:46.585Z,6.33
2019-05-03T13:50:47.684Z,4.97
2019-05-03T13:55:48.889Z,6.27
2019-05-03T14:00:51.287Z,5.70
2019-05-03T14:05:52.601Z,5.50
2019-05-03T14:10:55.537Z,9.33
2019-05-03T14:15:56.701Z,6.40
2019-05-03T14:20:59.803Z,5.63
2019-05-03T14:26:00.936Z,4.63
2019-05-03T14:31:02.069Z,4.57
2019-05-03T14:36:05.195Z,5.17
2019-05-03T14:41:06.273Z,4.27
2019-05-03T14:46:07.383Z,4.53
2019-05-03T14:51:08.511Z,4.83
2019-05-03T14:56:11.524Z,4.47
2019-05-03T15:01:15.494Z,5.20
2019-05-03T15:06:16.837Z,4.23
2019-05-03T15:11:17.958Z,5.10
2019-05-03T15:16:19.059Z,4.13
2019-05-03T15:21:20.272Z,4.17
2019-05-03T15:26:21.436Z,4.07
2019-05-03T15:31:24.443Z,3.97
2019-05-03T15:36:25.601Z,3.57
2019-05-03T15:41:26.726Z,3.73
2019-05-03T15:46:42.062Z,4.03
2019-05-03T15:51:44.586Z,3.93
2019-05-03T15:56:45.921Z,4.10
2019-05-03T16:01:47.226Z,4.20
2019-05-03T16:06:48.560Z,4.30
2019-05-03T16:11:50.082Z,4.37
2019-05-03T16:16:51.220Z,4.70
2019-05-03T16:21:54.375Z,4.80
2019-05-03T16:27:04.888Z,4.20
2019-05-03T16:32:06.021Z,4.50
2019-05-03T16:37:07.161Z,4.23
2019-05-03T16:42:08.353Z,4.00
2019-05-03T16:47:09.465Z,3.07
2019-05-03T16:52:18.381Z,2.57
2019-05-03T16:57:19.475Z,2.60
2019-05-03T17:02:20.704Z,2.83
2019-05-03T17:07:24.632Z,3.13
2019-05-03T17:12:34.813Z,3.00
2019-05-03T17:17:36.166Z,3.37
2019-05-03T17:22:37.309Z,3.37
2019-05-03T17:27:38.555Z,3.47
2019-05-03T17:32:39.681Z,3.90
2019-05-03T17:37:40.795Z,5.07
2019-05-03T17:43:00.345Z,4.13
2019-05-03T17:48:01.447Z,5.33
2019-05-03T17:53:10.520Z,5.70
2019-05-03T17:58:15.072Z,5.57
2019-05-03T18:03:17.583Z,4.87
2019-05-03T18:08:29.527Z,5.30
2019-05-03T18:13:32.652Z,4.80
2019-05-03T18:18:35.265Z,5.13
2019-05-03T18:23:36.557Z,11.50
2019-05-03T18:28:37.802Z,4.93
2019-05-03T18:33:38.911Z,6.20
2019-05-03T18:38:40.036Z,6.00
2019-05-03T18:43:55.399Z,6.70
2019-05-03T18:48:56.650Z,6.97
2019-05-03T18:53:57.810Z,6.87
2019-05-03T18:58:59.126Z,7.33
2019-05-03T19:04:14.680Z,7.93
2019-05-03T19:09:36.307Z,7.30
2019-05-03T19:14:37.611Z,7.83
2019-05-03T19:19:40.735Z,7.33
2019-05-03T19:24:41.894Z,8.70
2019-05-03T19:29:44.881Z,7.73
2019-05-03T19:34:51.009Z,8.17
2019-05-03T19:39:49.204Z,8.20
2019-05-03T19:44:50.305Z,8.10
2019-05-03T19:49:51.421Z,9.40
2019-05-03T19:54:52.536Z,10.67
2019-05-03T19:59:56.350Z,8.93
2019-05-03T20:05:15.982Z,8.33
2019-05-03T20:10:18.081Z,8.00
2019-05-03T20:15:19.692Z,8.67
2019-05-03T20:20:20.808Z,7.83
2019-05-03T20:25:21.940Z,7.57
2019-05-03T20:30:25.330Z,8.23
2019-05-03T20:35:26.354Z,8.20
2019-05-03T20:40:27.459Z,6.90
2019-05-03T20:45:36.272Z,6.53
2019-05-03T20:50:37.365Z,6.87
2019-05-03T20:55:38.490Z,7.77
2019-05-03T21:00:39.687Z,7.87
2019-05-03T21:05:40.885Z,8.00
2019-05-03T21:10:44.579Z,8.00
2019-05-03T21:15:50.720Z,7.17
2019-05-03T21:20:56.489Z,6.97
2019-05-03T21:26:12.472Z,6.57
2019-05-03T21:31:08.463Z,6.80
2019-05-03T21:36:09.597Z,6.17
2019-05-03T21:41:10.713Z,6.33
2019-05-03T21:46:16.759Z,7.10
2019-05-03T21:51:17.998Z,6.33
2019-05-03T21:56:19.091Z,7.20
2019-05-03T22:01:20.588Z,5.97
2019-05-03T22:06:21.787Z,6.00
2019-05-03T22:11:25.016Z,6.43
2019-05-03T22:16:30.571Z,6.30
2019-05-03T22:21:36.968Z,6.07
2019-05-03T22:26:52.505Z,6.13
2019-05-03T22:31:54.848Z,6.50
2019-05-03T22:36:56.301Z,5.50
2019-05-03T22:41:57.767Z,6.10
2019-05-03T22:46:58.859Z,6.13
2019-05-03T22:52:00.147Z,6.23
2019-05-03T22:57:01.243Z,5.90
2019-05-03T23:02:02.540Z,6.50
2019-05-03T23:07:05.460Z,6.13
2019-05-03T23:12:06.673Z,6.13
2019-05-03T23:17:07.782Z,6.10
2019-05-03T23:22:10.759Z,5.87
2019-05-03T23:27:11.875Z,5.83
2019-05-03T23:32:15.027Z,5.97
2019-05-03T23:37:16.172Z,6.47
2019-05-03T23:42:17.266Z,5.40
2019-05-03T23:47:25.097Z,5.97
2019-05-03T23:52:28.262Z,5.70
2019-05-03T23:57:29.455Z,5.30
